createdAt,value
2018-07-15T00:01:25.130Z,6.37
2018-07-15T00:03:53.194Z,5.87
2018-07-15T00:06:21.163Z,5.53
2018-07-15T00:08:49.202Z,5.55
2018-07-15T00:11:17.132Z,5.75
2018-07-15T00:13:45.135Z,4.10
2018-07-15T00:16:13.043Z,5.87
2018-07-15T00:18:40.956Z,5.15
2018-07-15T00:21:08.840Z,4.75
2018-07-15T00:23:37.003Z,4.65
2018-07-15T00:26:05.063Z,5.00
2018-07-15T00:28:33.093Z,5.70
2018-07-15T00:31:02.144Z,6.33
2018-07-15T00:33:29.968Z,4.60
2018-07-15T00:35:57.728Z,6.40
2018-07-15T00:38:25.689Z,4.37
2018-07-15T00:40:53.581Z,4.22
2018-07-15T00:43:21.378Z,3.67
2018-07-15T00:45:49.366Z,4.35
2018-07-15T00:48:33.988Z,5.20
2018-07-15T00:51:01.827Z,6.00
2018-07-15T00:53:30.649Z,4.53
2018-07-15T00:55:58.448Z,5.30
2018-07-15T00:58:26.212Z,3.87
2018-07-15T01:00:59.607Z,4.50
2018-07-15T01:03:27.445Z,4.58
2018-07-15T01:05:55.204Z,5.03
2018-07-15T01:08:22.986Z,4.62
2018-07-15T01:10:51.769Z,5.08
2018-07-15T01:13:19.522Z,5.47
2018-07-15T01:15:47.291Z,5.58
2018-07-15T01:18:15.078Z,5.37
2018-07-15T01:20:42.920Z,5.53
2018-07-15T01:23:10.857Z,8.15
2018-07-15T01:25:38.597Z,5.83
2018-07-15T01:28:06.427Z,5.65
2018-07-15T01:30:34.471Z,5.30
2018-07-15T01:33:02.437Z,5.78
2018-07-15T01:35:30.399Z,6.20
2018-07-15T01:37:58.293Z,6.50
2018-07-15T01:40:26.272Z,6.10
2018-07-15T01:42:54.242Z,6.78
2018-07-15T01:45:22.215Z,6.80
2018-07-15T01:47:50.145Z,7.47
2018-07-15T01:50:18.113Z,6.83
2018-07-15T01:52:46.022Z,7.37
2018-07-15T01:55:14.031Z,7.30
2018-07-15T01:57:41.922Z,7.10
2018-07-15T02:00:09.887Z,7.43
2018-07-15T02:02:37.827Z,9.95
2018-07-15T02:05:06.370Z,10.38
2018-07-15T02:07:34.891Z,7.10
2018-07-15T02:10:02.958Z,8.90
2018-07-15T02:12:30.840Z,7.20
2018-07-15T02:14:58.744Z,8.08
2018-07-15T02:17:26.656Z,8.50
2018-07-15T02:19:54.557Z,7.72
2018-07-15T02:22:22.595Z,8.33
2018-07-15T02:24:51.399Z,8.13
2018-07-15T02:27:19.756Z,8.03
2018-07-15T02:30:09.659Z,8.87
2018-07-15T02:32:37.536Z,7.90
2018-07-15T02:35:05.426Z,9.33
2018-07-15T02:37:33.254Z,9.10
2018-07-15T02:40:01.046Z,10.13
2018-07-15T02:42:28.806Z,9.43
2018-07-15T02:45:17.629Z,8.63
2018-07-15T02:47:58.156Z,8.97
2018-07-15T02:50:25.938Z,9.70
2018-07-15T02:52:53.884Z,8.97
2018-07-15T02:55:21.823Z,13.73
2018-07-15T02:57:49.791Z,12.87
2018-07-15T03:00:17.780Z,10.03
2018-07-15T03:02:45.694Z,11.00
2018-07-15T03:05:13.590Z,14.90
2018-07-15T03:07:41.487Z,12.90
2018-07-15T03:10:09.765Z,13.63
2018-07-15T03:12:37.696Z,10.30
2018-07-15T03:15:05.626Z,14.90
2018-07-15T03:17:33.554Z,12.80
2018-07-15T03:20:01.551Z,12.77
2018-07-15T03:22:29.495Z,12.07
2018-07-15T03:24:58.507Z,13.20
2018-07-15T03:27:26.519Z,13.40
2018-07-15T03:29:54.432Z,13.90
2018-07-15T03:32:22.362Z,16.27
2018-07-15T03:34:50.283Z,13.83
2018-07-15T03:37:18.151Z,17.33
2018-07-15T03:39:46.097Z,20.97
2018-07-15T03:42:13.994Z,20.07
2018-07-15T03:44:42.030Z,22.37
2018-07-15T03:47:09.989Z,26.33
2018-07-15T03:49:37.950Z,24.17
2018-07-15T03:54:48.403Z,18.00
2018-07-15T03:57:16.225Z,22.67
2018-07-15T03:59:44.065Z,21.50
2018-07-15T04:02:11.820Z,26.83
2018-07-15T04:04:39.612Z,27.17
2018-07-15T04:09:59.847Z,21.33
2018-07-15T04:12:29.688Z,23.07
2018-07-15T04:14:57.566Z,24.27
2018-07-15T04:17:25.435Z,16.40
2018-07-15T04:19:53.252Z,15.07
2018-07-15T04:22:21.114Z,15.03
2018-07-15T04:24:48.920Z,14.80
2018-07-15T04:27:16.696Z,13.20
2018-07-15T04:29:44.574Z,17.43
2018-07-15T04:32:29.966Z,12.43
2018-07-15T04:35:23.814Z,12.80
2018-07-15T04:37:52.041Z,11.73
2018-07-15T04:40:20.374Z,11.20
2018-07-15T04:42:48.645Z,12.20
2018-07-15T04:45:16.745Z,11.17
2018-07-15T04:47:44.677Z,9.20
2018-07-15T04:50:12.542Z,12.20
2018-07-15T04:52:40.364Z,9.10
2018-07-15T04:55:08.390Z,17.33
2018-07-15T04:57:36.207Z,11.12
2018-07-15T05:00:04.261Z,8.30
2018-07-15T05:02:32.088Z,9.40
2018-07-15T05:04:59.852Z,7.80
2018-07-15T05:07:27.614Z,7.97
2018-07-15T05:09:55.561Z,7.80
2018-07-15T05:12:23.340Z,7.22
2018-07-15T05:14:51.146Z,8.48
2018-07-15T05:17:24.993Z,9.35
2018-07-15T05:19:52.902Z,14.35
2018-07-15T05:22:20.803Z,13.75
2018-07-15T05:24:48.743Z,7.08
2018-07-15T05:27:16.726Z,7.65
2018-07-15T05:29:44.647Z,6.85
2018-07-15T05:32:12.664Z,8.85
2018-07-15T05:34:40.595Z,6.60
2018-07-15T05:37:08.498Z,6.65
2018-07-15T05:39:36.480Z,7.97
2018-07-15T05:42:04.416Z,8.20
2018-07-15T05:44:32.373Z,5.95
2018-07-15T05:47:00.250Z,7.50
2018-07-15T05:49:28.141Z,6.87
2018-07-15T05:51:56.073Z,10.05
2018-07-15T05:54:25.001Z,7.12
2018-07-15T05:56:52.883Z,6.75
2018-07-15T05:59:20.804Z,6.40
2018-07-15T06:01:48.802Z,6.33
2018-07-15T06:04:16.698Z,6.95
2018-07-15T06:06:44.611Z,8.58
2018-07-15T06:09:12.553Z,6.30
2018-07-15T06:11:40.445Z,9.65
2018-07-15T06:14:09.386Z,8.38
2018-07-15T06:16:37.293Z,5.72
2018-07-15T06:19:05.128Z,7.00
2018-07-15T06:21:33.035Z,6.58
2018-07-15T06:24:01.236Z,9.00
2018-07-15T06:26:29.164Z,5.90
2018-07-15T06:28:57.030Z,6.22
2018-07-15T06:31:24.854Z,13.20
2018-07-15T06:33:52.682Z,7.00
2018-07-15T06:36:30.488Z,6.67
2018-07-15T06:38:58.317Z,6.77
2018-07-15T06:41:29.388Z,5.92
2018-07-15T06:43:57.243Z,7.33
2018-07-15T06:46:25.113Z,5.80
2018-07-15T06:48:52.973Z,5.40
2018-07-15T06:51:20.794Z,5.90
2018-07-15T06:53:48.592Z,6.45
2018-07-15T06:56:16.501Z,8.43
2018-07-15T06:58:44.385Z,5.55
2018-07-15T07:01:12.275Z,6.37
2018-07-15T07:03:40.075Z,5.87
2018-07-15T07:06:07.989Z,5.42
2018-07-15T07:08:35.811Z,6.33
2018-07-15T07:11:03.865Z,7.12
2018-07-15T07:13:31.790Z,8.90
2018-07-15T07:19:04.471Z,4.83
2018-07-15T07:21:33.359Z,9.03
2018-07-15T07:24:01.274Z,5.05
2018-07-15T07:26:29.184Z,5.47
2018-07-15T07:28:57.154Z,5.90
2018-07-15T07:31:26.583Z,6.58
2018-07-15T07:33:54.472Z,4.67
2018-07-15T07:36:23.350Z,5.10
2018-07-15T07:38:51.265Z,4.28
2018-07-15T07:41:21.133Z,4.25
2018-07-15T07:43:49.311Z,5.25
2018-07-15T07:46:17.095Z,4.85
2018-07-15T07:48:45.100Z,6.87
2018-07-15T07:51:13.112Z,3.00
2018-07-15T07:53:41.069Z,4.47
2018-07-15T07:56:09.021Z,3.58
2018-07-15T07:58:36.956Z,2.87
2018-07-15T08:01:04.820Z,3.05
2018-07-15T08:03:32.698Z,5.40
2018-07-15T08:06:00.601Z,5.10
2018-07-15T08:08:28.496Z,4.40
2018-07-15T08:10:56.385Z,5.10
2018-07-15T08:13:24.340Z,4.05
2018-07-15T08:15:53.244Z,3.27
2018-07-15T08:18:21.086Z,4.12
2018-07-15T08:20:48.974Z,3.77
2018-07-15T08:23:16.759Z,3.77
2018-07-15T08:25:44.543Z,4.55
2018-07-15T08:28:12.452Z,4.08
2018-07-15T08:30:52.426Z,3.87
2018-07-15T08:33:20.304Z,4.70
2018-07-15T08:35:48.155Z,4.62
2018-07-15T08:38:15.968Z,2.52
2018-07-15T08:40:45.945Z,2.47
2018-07-15T08:43:13.849Z,2.58
2018-07-15T08:46:20.187Z,3.15
2018-07-15T08:48:48.050Z,1.55
2018-07-15T08:51:16.973Z,2.95
2018-07-15T08:53:44.790Z,2.83
2018-07-15T08:56:12.670Z,3.83
2018-07-15T08:58:40.530Z,4.28
2018-07-15T09:01:08.447Z,3.65
2018-07-15T09:03:36.369Z,2.00
2018-07-15T09:06:05.355Z,2.05
2018-07-15T09:08:33.233Z,5.75
2018-07-15T09:11:02.112Z,1.92
2018-07-15T09:13:29.980Z,2.50
2018-07-15T09:15:59.834Z,3.45
2018-07-15T09:18:27.735Z,2.80
2018-07-15T09:20:55.629Z,2.05
2018-07-15T09:23:23.608Z,1.37
2018-07-15T09:25:51.511Z,2.80
2018-07-15T09:28:20.727Z,2.75
2018-07-15T09:30:48.659Z,1.05
2018-07-15T09:33:16.723Z,4.45
2018-07-15T09:35:44.706Z,3.17
2018-07-15T09:38:12.662Z,1.17
2018-07-15T09:40:40.744Z,2.98
2018-07-15T09:43:09.597Z,3.75
2018-07-15T09:45:38.617Z,4.33
2018-07-15T09:48:06.594Z,2.55
2018-07-15T09:50:34.520Z,3.33
2018-07-15T09:53:02.434Z,1.80
2018-07-15T09:55:30.460Z,0.70
2018-07-15T09:57:58.424Z,2.67
2018-07-15T10:00:32.067Z,1.70
2018-07-15T10:02:59.963Z,1.87
2018-07-15T10:05:27.917Z,1.25
2018-07-15T10:07:55.865Z,0.78
2018-07-15T10:10:23.800Z,0.98
2018-07-15T10:12:51.701Z,0.80
2018-07-15T10:15:19.661Z,0.93
2018-07-15T10:17:47.652Z,1.85
2018-07-15T10:20:15.561Z,2.35
2018-07-15T10:25:35.904Z,1.40
2018-07-15T10:28:03.807Z,1.42
2018-07-15T10:30:31.628Z,3.75
2018-07-15T10:32:59.487Z,1.50
2018-07-15T10:35:27.272Z,3.22
2018-07-15T10:37:55.137Z,0.78
2018-07-15T10:40:23.111Z,0.90
2018-07-15T10:43:00.134Z,0.65
2018-07-15T10:45:27.958Z,0.80
2018-07-15T10:47:55.744Z,1.35
2018-07-15T10:50:25.765Z,2.83
2018-07-15T10:52:53.665Z,3.47
2018-07-15T10:55:21.443Z,0.50
2018-07-15T10:57:49.353Z,1.32
2018-07-15T11:00:17.202Z,2.20
2018-07-15T11:02:45.082Z,0.95
2018-07-15T11:05:13.928Z,0.85
2018-07-15T11:07:41.729Z,1.15
2018-07-15T11:10:09.706Z,1.42
2018-07-15T11:12:38.040Z,0.55
2018-07-15T11:15:07.098Z,2.85
2018-07-15T11:17:34.917Z,1.37
2018-07-15T11:20:03.011Z,0.70
2018-07-15T11:25:19.139Z,1.95
2018-07-15T11:27:46.984Z,2.70
2018-07-15T11:30:14.817Z,1.85
2018-07-15T11:32:42.777Z,1.35
2018-07-15T11:35:10.585Z,2.95
2018-07-15T11:37:38.424Z,1.10
2018-07-15T11:40:06.240Z,1.67
2018-07-15T11:42:35.115Z,2.10
2018-07-15T11:45:03.005Z,2.05
2018-07-15T11:47:30.836Z,1.45
2018-07-15T11:49:58.629Z,1.75
2018-07-15T11:52:26.471Z,1.50
2018-07-15T11:54:54.540Z,1.00
2018-07-15T11:57:22.311Z,0.85
2018-07-15T11:59:50.164Z,2.30
2018-07-15T12:02:17.949Z,0.70
2018-07-15T12:07:34.007Z,1.57
2018-07-15T12:10:01.918Z,0.90
2018-07-15T12:12:29.760Z,2.85
2018-07-15T12:14:57.671Z,2.92
2018-07-15T12:17:25.504Z,3.65
2018-07-15T12:19:53.398Z,2.42
2018-07-15T12:22:21.249Z,1.67
2018-07-15T12:24:49.172Z,1.27
2018-07-15T12:27:16.994Z,1.12
2018-07-15T12:33:29.383Z,1.47
2018-07-15T12:35:57.230Z,1.22
2018-07-15T12:38:25.138Z,0.60
2018-07-15T12:40:53.005Z,0.57
2018-07-15T12:43:21.758Z,0.70
2018-07-15T12:45:50.690Z,0.70
2018-07-15T12:48:18.534Z,0.85
2018-07-15T12:50:47.405Z,2.67
2018-07-15T12:53:15.317Z,0.90
2018-07-15T12:55:43.242Z,1.90
2018-07-15T12:58:11.130Z,2.30
2018-07-15T13:00:40.002Z,1.45
2018-07-15T13:03:11.831Z,0.50
2018-07-15T13:05:39.700Z,0.40
2018-07-15T13:08:07.594Z,0.70
2018-07-15T13:10:35.447Z,0.75
2018-07-15T13:13:03.368Z,1.95
2018-07-15T13:15:31.167Z,1.65
2018-07-15T13:17:59.032Z,0.60
2018-07-15T13:20:26.894Z,0.47
2018-07-15T13:22:55.306Z,0.75
2018-07-15T13:25:23.155Z,0.40
2018-07-15T13:27:52.229Z,4.17
2018-07-15T13:30:20.206Z,0.40
2018-07-15T13:32:48.056Z,1.90
2018-07-15T13:35:17.088Z,0.82
2018-07-15T13:37:45.150Z,0.72
2018-07-15T13:40:13.126Z,0.57
2018-07-15T13:42:41.005Z,1.40
2018-07-15T13:45:12.649Z,0.30
2018-07-15T13:47:40.464Z,0.50
2018-07-15T13:53:30.719Z,1.55
2018-07-15T13:55:58.646Z,1.02
2018-07-15T13:58:26.726Z,0.60
2018-07-15T14:00:55.690Z,1.37
2018-07-15T14:03:23.801Z,1.00
2018-07-15T14:05:51.747Z,0.40
2018-07-15T14:08:19.758Z,0.68
2018-07-15T14:10:48.612Z,0.80
2018-07-15T14:13:17.031Z,0.88
2018-07-15T14:15:44.959Z,1.77
2018-07-15T14:18:12.839Z,2.58
2018-07-15T14:20:40.841Z,3.12
2018-07-15T14:23:08.770Z,0.60
2018-07-15T14:25:36.809Z,0.50
2018-07-15T14:28:05.109Z,0.50
2018-07-15T14:30:32.973Z,3.42
2018-07-15T14:33:00.960Z,0.80
2018-07-15T14:35:29.058Z,0.60
2018-07-15T14:37:57.008Z,1.92
2018-07-15T14:40:24.853Z,1.40
2018-07-15T14:42:52.678Z,0.98
2018-07-15T14:45:20.572Z,2.67
2018-07-15T14:47:48.457Z,0.50
2018-07-15T14:50:16.225Z,1.37
2018-07-15T14:52:44.076Z,3.05
2018-07-15T14:55:12.019Z,0.90
2018-07-15T14:57:39.853Z,1.90
2018-07-15T15:00:07.715Z,0.82
2018-07-15T15:02:35.509Z,0.95
2018-07-15T15:05:05.318Z,0.42
2018-07-15T15:07:33.208Z,0.55
2018-07-15T15:10:38.190Z,0.40
2018-07-15T15:13:06.084Z,1.00
2018-07-15T15:15:34.882Z,0.47
2018-07-15T15:18:03.207Z,0.65
2018-07-15T15:20:31.085Z,0.50
2018-07-15T15:22:58.917Z,0.40
2018-07-15T15:25:26.877Z,0.53
2018-07-15T15:27:54.724Z,0.60
2018-07-15T15:30:23.478Z,1.12
2018-07-15T15:32:52.525Z,0.35
2018-07-15T15:38:36.078Z,0.55
2018-07-15T15:41:04.014Z,0.40
2018-07-15T15:43:55.858Z,1.45
2018-07-15T15:46:23.732Z,0.30
2018-07-15T15:48:51.547Z,0.80
2018-07-15T15:51:19.442Z,3.30
2018-07-15T15:53:47.379Z,1.40
2018-07-15T15:56:15.241Z,0.35
2018-07-15T15:58:43.141Z,0.20
2018-07-15T16:01:10.938Z,0.45
2018-07-15T16:03:38.842Z,1.80
2018-07-15T16:06:06.647Z,1.27
2018-07-15T16:08:34.624Z,0.82
2018-07-15T16:11:02.528Z,1.10
2018-07-15T16:13:30.450Z,0.42
2018-07-15T16:15:58.384Z,1.85
2018-07-15T16:18:26.178Z,0.20
2018-07-15T16:20:54.177Z,1.55
2018-07-15T16:23:22.048Z,0.17
2018-07-15T16:25:50.112Z,0.72
2018-07-15T16:28:30.402Z,0.50
2018-07-15T16:30:58.239Z,0.40
2018-07-15T16:33:26.239Z,0.40
2018-07-15T16:35:55.041Z,1.37
2018-07-15T16:38:22.868Z,0.85
2018-07-15T16:40:50.721Z,0.30
2018-07-15T16:43:18.586Z,4.30
2018-07-15T16:45:46.398Z,0.33
2018-07-15T16:48:15.247Z,0.42
2018-07-15T16:50:43.414Z,0.33
2018-07-15T16:53:11.208Z,0.50
2018-07-15T16:55:39.066Z,1.15
2018-07-15T16:58:07.856Z,0.30
2018-07-15T17:00:35.790Z,0.30
2018-07-15T17:03:04.919Z,0.40
2018-07-15T17:05:32.952Z,0.93
2018-07-15T17:08:34.091Z,0.30
2018-07-15T17:11:01.959Z,1.87
2018-07-15T17:13:29.790Z,0.93
2018-07-15T17:15:57.653Z,0.35
2018-07-15T17:18:25.520Z,1.45
2018-07-15T17:20:53.366Z,1.52
2018-07-15T17:23:21.187Z,20.50
2018-07-15T17:25:49.000Z,16.27
2018-07-15T17:28:16.870Z,0.68
2018-07-15T17:30:44.721Z,2.75
2018-07-15T17:33:22.947Z,1.57
2018-07-15T17:35:50.908Z,1.50
2018-07-15T17:38:18.865Z,0.68
2018-07-15T17:40:47.294Z,0.75
2018-07-15T17:43:15.186Z,1.65
2018-07-15T17:45:43.125Z,0.40
2018-07-15T17:48:11.139Z,0.40
2018-07-15T17:50:39.029Z,1.50
2018-07-15T17:53:06.946Z,0.45
2018-07-15T17:55:34.860Z,0.50
2018-07-15T17:58:03.059Z,0.60
2018-07-15T18:00:30.971Z,0.45
2018-07-15T18:02:58.894Z,1.77
2018-07-15T18:05:26.933Z,2.95
2018-07-15T18:07:54.815Z,0.45
2018-07-15T18:10:22.877Z,0.47
2018-07-15T18:12:50.841Z,0.42
2018-07-15T18:15:18.876Z,0.30
2018-07-15T18:17:46.812Z,0.45
2018-07-15T18:20:14.723Z,1.85
2018-07-15T18:22:42.806Z,2.77
2018-07-15T18:25:10.595Z,0.90
2018-07-15T18:27:38.482Z,1.87
2018-07-15T18:30:06.374Z,0.57
2018-07-15T18:32:34.275Z,0.60
2018-07-15T18:35:02.128Z,0.50
2018-07-15T18:37:29.948Z,0.40
2018-07-15T18:39:57.861Z,0.65
2018-07-15T18:42:25.686Z,1.47
2018-07-15T18:44:53.492Z,1.65
2018-07-15T18:47:21.287Z,0.50
2018-07-15T18:49:49.109Z,2.47
2018-07-15T18:52:17.056Z,9.33
2018-07-15T18:54:44.980Z,7.42
2018-07-15T18:57:13.156Z,1.67
2018-07-15T18:59:41.039Z,0.47
2018-07-15T19:02:09.002Z,1.52
2018-07-15T19:04:36.922Z,3.95
2018-07-15T19:07:04.958Z,3.42
2018-07-15T19:09:32.875Z,2.75
2018-07-15T19:12:00.851Z,3.22
2018-07-15T19:14:28.789Z,0.78
2018-07-15T19:16:56.830Z,2.92
2018-07-15T19:19:24.749Z,2.60
2018-07-15T19:21:52.704Z,3.60
2018-07-15T19:24:20.668Z,2.85
2018-07-15T19:26:49.171Z,0.95
2018-07-15T19:29:17.112Z,4.10
2018-07-15T19:31:45.161Z,1.65
2018-07-15T19:34:13.051Z,1.57
2018-07-15T19:36:40.988Z,0.70
2018-07-15T19:39:08.965Z,4.20
2018-07-15T19:41:36.996Z,1.95
2018-07-15T19:44:04.951Z,0.60
2018-07-15T19:46:32.879Z,1.72
2018-07-15T19:49:00.811Z,0.50
2018-07-15T19:51:28.759Z,1.02
2018-07-15T19:56:32.913Z,0.90
2018-07-15T19:59:00.757Z,1.77
2018-07-15T20:01:28.616Z,1.90
2018-07-15T20:03:56.491Z,0.93
2018-07-15T20:06:24.285Z,2.17
2018-07-15T20:08:52.149Z,3.80
2018-07-15T20:11:19.936Z,0.80
2018-07-15T20:13:48.806Z,4.08
2018-07-15T20:16:17.007Z,3.12
2018-07-15T20:18:45.065Z,1.00
2018-07-15T20:21:12.935Z,5.30
2018-07-15T20:23:40.766Z,1.50
2018-07-15T20:26:08.607Z,5.00
2018-07-15T20:28:36.423Z,0.85
2018-07-15T20:31:05.250Z,1.60
2018-07-15T20:33:33.039Z,3.05
2018-07-15T20:36:00.814Z,1.75
2018-07-15T20:38:28.620Z,2.30
2018-07-15T20:40:56.439Z,6.50
2018-07-15T20:43:24.203Z,5.47
2018-07-15T20:45:52.101Z,2.35
2018-07-15T20:48:19.938Z,1.70
2018-07-15T20:50:47.829Z,2.25
2018-07-15T20:53:15.627Z,2.15
2018-07-15T20:55:43.423Z,3.62
2018-07-15T20:58:11.249Z,4.17
2018-07-15T21:00:39.167Z,2.47
2018-07-15T21:03:07.070Z,2.08
2018-07-15T21:05:35.186Z,3.20
2018-07-15T21:08:03.309Z,2.10
2018-07-15T21:10:31.472Z,5.42
2018-07-15T21:13:05.478Z,2.67
2018-07-15T21:15:33.629Z,2.72
2018-07-15T21:18:01.718Z,3.22
2018-07-15T21:20:29.600Z,6.92
2018-07-15T21:22:57.584Z,2.83
2018-07-15T21:25:25.635Z,7.60
2018-07-15T21:27:53.548Z,3.05
2018-07-15T21:30:21.565Z,3.50
2018-07-15T21:32:50.474Z,6.08
2018-07-15T21:35:18.386Z,4.30
2018-07-15T21:37:46.384Z,6.90
2018-07-15T21:40:14.436Z,4.28
2018-07-15T21:42:42.402Z,4.87
2018-07-15T21:45:10.270Z,6.72
2018-07-15T21:47:53.112Z,5.65
2018-07-15T21:50:21.080Z,6.92
2018-07-15T21:52:49.158Z,4.35
2018-07-15T21:55:17.171Z,4.00
2018-07-15T21:57:45.211Z,21.67
2018-07-15T22:00:13.252Z,4.42
2018-07-15T22:02:41.322Z,3.95
2018-07-15T22:05:14.836Z,4.22
2018-07-15T22:11:01.800Z,3.90
2018-07-15T22:13:29.800Z,5.15
2018-07-15T22:15:57.722Z,4.28
2018-07-15T22:18:26.669Z,3.87
2018-07-15T22:20:54.635Z,4.30
2018-07-15T22:24:10.709Z,4.80
2018-07-15T22:26:46.614Z,4.28
2018-07-15T22:29:14.413Z,4.28
2018-07-15T22:31:42.257Z,5.05
2018-07-15T22:34:10.057Z,4.25
2018-07-15T22:43:47.515Z,5.60
2018-07-15T22:46:33.838Z,5.17
2018-07-15T22:49:06.626Z,4.95
2018-07-15T22:51:43.836Z,5.00
2018-07-15T22:54:11.667Z,6.40
2018-07-15T22:56:40.678Z,5.58
2018-07-15T22:59:08.552Z,5.62
2018-07-15T23:01:38.905Z,5.87
2018-07-15T23:07:52.541Z,11.22
2018-07-15T23:10:21.038Z,8.58
2018-07-15T23:12:49.046Z,8.33
2018-07-15T23:15:17.131Z,7.40
2018-07-15T23:17:45.005Z,7.78
2018-07-15T23:20:13.354Z,8.00
2018-07-15T23:22:41.506Z,8.53
2018-07-15T23:25:12.754Z,7.42
2018-07-15T23:27:40.679Z,8.55
2018-07-15T23:30:09.819Z,8.10
2018-07-15T23:32:37.745Z,10.40
2018-07-15T23:35:06.010Z,9.55
2018-07-15T23:37:34.099Z,8.00
2018-07-15T23:40:01.937Z,8.38
2018-07-15T23:42:29.815Z,9.58
2018-07-15T23:44:57.825Z,8.93
2018-07-15T23:47:25.698Z,7.92
2018-07-15T23:49:54.796Z,6.45
2018-07-15T23:52:24.002Z,9.13
2018-07-15T23:54:52.008Z,8.08
2018-07-15T23:57:19.802Z,7.03
2018-07-15T23:59:48.756Z,8.20
